Time;durP1;ratioP1;P1;durP2;ratioP2;P2;SDS_P1;SDS_P2;PMS_P1;PMS_P2;Temp;Humidity;BMP_temperature;BMP_pressure;BME280_temperature;BME280_humidity;BME280_pressure;Samples;Min_cycle;Max_cycle;Signal;HPM_P1;HPM_P2
2022/09/01 00:00:37;;;;;;;10.43;9.50;;;17.40;99.90;;;;;;6265093;28;20470;-67
2022/09/01 00:03:41;;;;;;;9.67;8.80;;;17.50;99.90;;;;;;6262887;28;20961;-67
2022/09/01 00:06:47;;;;;;;9.97;9.17;;;17.40;99.90;;;;;;6261495;28;20478;-67
2022/09/01 00:09:50;;;;;;;11.33;10.13;;;17.20;99.90;;;;;;6264186;28;20497;-67
2022/09/01 00:12:53;;;;;;;10.80;9.90;;;17.20;99.90;;;;;;6263099;28;20479;-67
2022/09/01 00:15:56;;;;;;;10.97;10.10;;;17.20;99.90;;;;;;6263697;28;20471;-67
2022/09/01 00:19:00;;;;;;;11.70;10.07;;;17.20;99.90;;;;;;6259855;28;20486;-67
2022/09/01 00:22:05;;;;;;;11.20;10.10;;;17.20;99.90;;;;;;6263005;28;20794;-67
2022/09/01 00:25:09;;;;;;;9.80;9.00;;;17.20;99.90;;;;;;6260209;28;20479;-67
2022/09/01 00:28:12;;;;;;;9.20;8.50;;;17.20;99.90;;;;;;6264956;28;20467;-68
2022/09/01 00:31:15;;;;;;;9.30;8.60;;;17.20;99.90;;;;;;6262556;28;20946;-67
2022/09/01 00:34:19;;;;;;;9.63;8.83;;;17.20;99.90;;;;;;6264005;28;20478;-68
2022/09/01 00:37:24;;;;;;;9.53;8.70;;;17.20;99.90;;;;;;6260240;28;20485;-67
2022/09/01 00:40:27;;;;;;;9.20;8.40;;;17.20;99.90;;;;;;6259644;28;20468;-67
2022/09/01 00:43:38;;;;;;;9.47;8.77;;;17.20;99.90;;;;;;6250704;28;20479;-67
2022/09/01 00:46:43;;;;;;;9.10;8.40;;;17.20;99.90;;;;;;6250240;28;20479;-67
2022/09/01 00:49:57;;;;;;;8.57;7.83;;;17.10;99.90;;;;;;6250535;28;20492;-67
2022/09/01 00:53:02;;;;;;;9.57;8.67;;;17.10;99.90;;;;;;6250547;28;20486;-67
2022/09/01 00:56:06;;;;;;;9.57;8.77;;;17.20;99.90;;;;;;6250263;28;20486;-67
2022/09/01 00:59:11;;;;;;;8.70;8.00;;;17.20;99.90;;;;;;6241548;28;20475;-67
2022/09/01 01:02:15;;;;;;;9.60;8.80;;;17.20;99.90;;;;;;6250278;28;20475;-67
2022/09/01 01:05:20;;;;;;;9.33;8.53;;;17.20;99.90;;;;;;6250079;28;20499;-67
2022/09/01 01:08:32;;;;;;;10.07;9.17;;;17.20;99.90;;;;;;6250698;28;20466;-67
2022/09/01 01:11:36;;;;;;;10.30;9.30;;;17.20;99.90;;;;;;6250514;28;20469;-67
2022/09/01 01:14:40;;;;;;;9.67;8.93;;;17.30;99.90;;;;;;6268567;28;20434;-66
2022/09/01 01:17:47;;;;;;;9.70;8.90;;;17.30;99.90;;;;;;6275214;28;20516;-67
2022/09/01 01:24:26;;;;;;;9.73;8.83;;;17.20;99.90;;;;;;6274879;28;21065;-67
2022/09/01 01:27:33;;;;;;;9.30;8.53;;;17.20;99.90;;;;;;6274991;28;20466;-67
2022/09/01 01:30:50;;;;;;;10.90;10.10;;;17.20;99.90;;;;;;6274591;28;20483;-67
2022/09/01 01:33:57;;;;;;;10.27;9.37;;;17.10;99.90;;;;;;6274748;28;21024;-67
2022/09/01 01:37:00;;;;;;;10.50;9.60;;;17.10;99.90;;;;;;6274624;28;20973;-67
2022/09/01 01:40:14;;;;;;;10.33;9.40;;;17.10;99.90;;;;;;6274282;28;20946;-67
2022/09/01 01:43:21;;;;;;;10.20;9.40;;;17.10;99.90;;;;;;6274768;28;20466;-67
2022/09/01 01:46:26;;;;;;;9.50;8.63;;;17.10;99.90;;;;;;6274353;28;20554;-67
2022/09/01 01:49:30;;;;;;;9.40;8.60;;;17.20;99.90;;;;;;6274439;28;20476;-67
2022/09/01 01:52:33;;;;;;;9.97;9.00;;;17.30;99.90;;;;;;6274668;28;21072;-67
2022/09/01 01:55:42;;;;;;;9.37;8.67;;;17.30;99.90;;;;;;6274454;28;20824;-66
2022/09/01 01:58:46;;;;;;;10.60;9.73;;;17.30;99.90;;;;;;6274480;28;20486;-66
2022/09/01 02:01:49;;;;;;;10.40;9.40;;;17.30;99.90;;;;;;6265054;28;20470;-66
2022/09/01 02:04:53;;;;;;;9.80;8.80;;;17.30;99.90;;;;;;6274270;28;20486;-67
2022/09/01 02:08:02;;;;;;;10.70;9.77;;;17.30;99.90;;;;;;6274431;28;20478;-67
2022/09/01 02:11:08;;;;;;;9.67;8.87;;;17.30;99.90;;;;;;6277554;28;20482;-67
2022/09/01 02:14:12;;;;;;;9.20;8.50;;;17.30;99.90;;;;;;6278814;28;21061;-67
2022/09/01 02:17:15;;;;;;;10.00;9.10;;;17.40;99.90;;;;;;6278816;28;20502;-67
2022/09/01 02:20:18;;;;;;;8.70;8.00;;;17.50;99.90;;;;;;6279124;28;20485;-67
2022/09/01 02:23:23;;;;;;;9.10;8.30;;;17.40;99.90;;;;;;6278882;28;20768;-67
2022/09/01 02:26:30;;;;;;;9.30;8.40;;;17.50;99.90;;;;;;6279232;28;20791;-66
2022/09/01 02:29:34;;;;;;;8.50;7.80;;;17.40;99.90;;;;;;6279210;28;20418;-67
2022/09/01 02:32:46;;;;;;;8.67;7.73;;;17.40;99.90;;;;;;6278597;28;20454;-67
2022/09/01 02:35:51;;;;;;;7.47;6.87;;;17.40;99.90;;;;;;6278615;28;20470;-67
2022/09/01 02:38:54;;;;;;;7.97;6.70;;;17.40;99.90;;;;;;6278625;28;20962;-67
2022/09/01 02:42:00;;;;;;;6.73;6.20;;;17.40;99.90;;;;;;6278460;28;20469;-67
2022/09/01 02:45:06;;;;;;;6.50;6.10;;;17.40;99.90;;;;;;6278510;28;20485;-67
2022/09/01 02:48:10;;;;;;;6.67;6.00;;;17.40;99.90;;;;;;6278482;28;20481;-67
2022/09/01 02:51:15;;;;;;;6.00;5.20;;;17.40;99.90;;;;;;6278052;28;20471;-67
2022/09/01 02:54:22;;;;;;;5.77;5.27;;;17.50;99.90;;;;;;6278403;28;20794;-67
2022/09/01 02:57:28;;;;;;;6.53;6.00;;;17.50;99.90;;;;;;6278040;28;20480;-67
2022/09/01 03:00:34;;;;;;;6.83;6.43;;;17.50;99.90;;;;;;6278329;28;20471;-67
2022/09/01 03:03:38;;;;;;;8.00;7.20;;;17.50;99.90;;;;;;6273317;28;20478;-67
2022/09/01 03:06:41;;;;;;;7.43;6.80;;;17.50;99.90;;;;;;6277851;28;20489;-68
2022/09/01 03:09:44;;;;;;;7.10;6.50;;;17.50;99.90;;;;;;6277642;28;20477;-67
2022/09/01 03:12:48;;;;;;;7.50;5.77;;;17.60;99.90;;;;;;6277969;28;20482;-67
2022/09/01 03:15:52;;;;;;;6.03;5.53;;;17.50;99.90;;;;;;6277289;28;20985;-67
2022/09/01 03:18:55;;;;;;;5.30;4.90;;;17.50;99.90;;;;;;6277218;28;20744;-67
2022/09/01 03:21:58;;;;;;;7.10;5.73;;;17.50;99.90;;;;;;6277370;28;20527;-67
2022/09/01 03:25:02;;;;;;;5.67;5.27;;;17.50;99.90;;;;;;6277126;28;20480;-66
2022/09/01 03:28:07;;;;;;;7.60;5.90;;;17.40;99.90;;;;;;6260763;28;20478;-67
2022/09/01 03:31:10;;;;;;;5.00;4.60;;;17.40;99.90;;;;;;6252409;28;20510;-68
2022/09/01 03:34:15;;;;;;;5.10;4.70;;;17.40;99.90;;;;;;6252636;28;20471;-67
2022/09/01 03:37:19;;;;;;;8.23;4.63;;;17.50;99.90;;;;;;6259873;28;20647;-67
2022/09/01 03:40:23;;;;;;;5.37;5.03;;;17.60;99.90;;;;;;6277198;28;20470;-67
2022/09/01 03:43:28;;;;;;;5.67;5.17;;;17.60;99.90;;;;;;6276634;28;20474;-67
2022/09/01 03:46:39;;;;;;;5.47;5.07;;;17.60;99.90;;;;;;6277242;28;20965;-67
2022/09/01 03:49:42;;;;;;;4.93;4.63;;;17.60;99.90;;;;;;6276494;28;20466;-67
2022/09/01 03:52:45;;;;;;;4.80;4.50;;;17.60;99.90;;;;;;6276836;28;20478;-67
2022/09/01 03:55:51;;;;;;;5.30;4.90;;;17.60;99.90;;;;;;6276762;28;20481;-66
2022/09/01 03:58:57;;;;;;;5.30;4.90;;;17.60;99.90;;;;;;6276768;28;20470;-67
2022/09/01 04:02:01;;;;;;;5.00;4.67;;;17.70;99.90;;;;;;6276653;28;20556;-67
2022/09/01 04:05:05;;;;;;;5.20;4.80;;;17.50;99.90;;;;;;6276122;28;20988;-66
2022/09/01 04:08:12;;;;;;;5.30;4.90;;;17.50;99.90;;;;;;6276104;28;20544;-67
2022/09/01 04:11:17;;;;;;;5.03;4.63;;;17.60;99.90;;;;;;6266625;28;20632;-67
2022/09/01 04:14:24;;;;;;;6.57;6.00;;;17.50;99.90;;;;;;6276198;28;20536;-66
2022/09/01 04:20:52;;;;;;;5.93;5.43;;;17.40;99.90;;;;;;6277074;28;20782;-67
2022/09/01 04:24:04;;;;;;;5.47;5.07;;;17.50;99.90;;;;;;6277354;28;20458;-67
2022/09/01 04:27:08;;;;;;;6.60;5.77;;;17.40;99.90;;;;;;6277066;28;20462;-67
2022/09/01 04:30:13;;;;;;;5.83;5.37;;;17.40;99.90;;;;;;6276792;28;20474;-67
2022/09/01 04:33:18;;;;;;;5.77;5.37;;;17.40;99.90;;;;;;6275208;28;20532;-67
2022/09/01 04:36:24;;;;;;;5.80;5.40;;;17.30;99.90;;;;;;6275561;28;20481;-67
2022/09/01 04:39:28;;;;;;;6.17;5.67;;;17.30;99.90;;;;;;6275543;28;20954;-67
2022/09/01 04:42:31;;;;;;;7.07;6.47;;;17.30;99.90;;;;;;6275484;28;20950;-67
2022/09/01 04:45:39;;;;;;;6.27;5.77;;;17.30;99.90;;;;;;6275277;28;20478;-66
2022/09/01 04:48:44;;;;;;;6.13;5.60;;;17.30;99.90;;;;;;6275729;28;20470;-67
2022/09/01 04:51:50;;;;;;;6.33;5.87;;;17.30;99.90;;;;;;6275052;28;20843;-67
2022/09/01 04:54:56;;;;;;;5.80;5.20;;;17.30;99.90;;;;;;6275188;28;20498;-66
2022/09/01 04:58:02;;;;;;;7.93;5.70;;;17.30;99.90;;;;;;6255924;28;20785;-67
2022/09/01 05:01:17;;;;;;;6.20;5.80;;;17.40;99.90;;;;;;6250481;28;20506;-66
2022/09/01 05:04:23;;;;;;;6.17;5.57;;;17.40;99.90;;;;;;6250418;28;20576;-66
2022/09/01 05:07:26;;;;;;;6.60;5.97;;;17.40;99.90;;;;;;6250463;28;20479;-66
2022/09/01 05:10:30;;;;;;;5.80;5.20;;;17.40;99.90;;;;;;6250045;28;20471;-66
2022/09/01 05:13:34;;;;;;;6.00;5.60;;;17.50;99.90;;;;;;6250918;28;20550;-66
2022/09/01 05:16:41;;;;;;;6.33;5.73;;;17.60;99.90;;;;;;6271865;28;20512;-67
2022/09/01 05:19:47;;;;;;;6.50;5.90;;;17.60;99.90;;;;;;6274986;28;20799;-66
2022/09/01 05:22:55;;;;;;;6.47;5.63;;;17.70;99.90;;;;;;6275569;28;20984;-67
2022/09/01 05:25:59;;;;;;;6.37;5.77;;;17.70;99.90;;;;;;6275379;28;20470;-66
2022/09/01 05:29:09;;;;;;;6.23;5.63;;;17.80;99.90;;;;;;6275042;28;20977;-67
2022/09/01 05:32:14;;;;;;;6.83;6.30;;;17.90;99.90;;;;;;6274627;28;20474;-67
2022/09/01 05:35:17;;;;;;;6.83;5.93;;;18.00;99.90;;;;;;6274858;28;20474;-67
2022/09/01 05:38:20;;;;;;;5.43;5.13;;;18.00;99.90;;;;;;6274765;28;20793;-67
2022/09/01 05:41:24;;;;;;;6.63;6.03;;;18.20;99.90;;;;;;6274895;28;20462;-68
2022/09/01 05:44:27;;;;;;;6.00;5.47;;;18.20;99.90;;;;;;6275942;28;20460;-67
2022/09/01 05:47:33;;;;;;;5.87;5.40;;;18.30;99.90;;;;;;6278647;28;20449;-67
2022/09/01 05:50:40;;;;;;;5.80;5.40;;;18.50;99.90;;;;;;6278217;28;20639;-68
2022/09/01 05:53:43;;;;;;;5.37;4.97;;;18.60;99.90;;;;;;6278101;28;20238;-67
2022/09/01 05:56:47;;;;;;;5.90;5.50;;;18.80;99.90;;;;;;6278234;28;20464;-67
2022/09/01 05:59:52;;;;;;;5.57;5.07;;;18.90;99.90;;;;;;6278035;28;20556;-68
2022/09/01 06:02:57;;;;;;;6.90;6.30;;;19.00;99.90;;;;;;6278442;28;20306;-67
2022/09/01 06:06:11;;;;;;;5.30;5.00;;;19.10;99.90;;;;;;6277620;28;20250;-67
2022/09/01 06:09:16;;;;;;;6.10;5.70;;;19.20;99.90;;;;;;6277926;28;20231;-67
2022/09/01 06:12:22;;;;;;;4.83;4.43;;;19.40;99.90;;;;;;6277770;28;20235;-67
2022/09/01 06:15:28;;;;;;;6.07;5.57;;;19.50;99.90;;;;;;6270067;28;20246;-67
2022/09/01 06:18:33;;;;;;;5.47;4.93;;;19.60;99.90;;;;;;6277763;28;20236;-66
2022/09/01 06:21:36;;;;;;;5.60;5.10;;;19.90;99.90;;;;;;6276018;28;20235;-67
2022/09/01 06:24:39;;;;;;;5.93;5.43;;;20.20;99.90;;;;;;6276045;28;20223;-66
2022/09/01 06:27:48;;;;;;;4.90;4.50;;;20.40;99.90;;;;;;6276454;28;20230;-67
2022/09/01 06:30:52;;;;;;;4.83;4.53;;;20.60;99.90;;;;;;6276848;28;20227;-67
2022/09/01 06:33:58;;;;;;;5.50;5.10;;;20.70;99.90;;;;;;6276812;28;20233;-67
2022/09/01 06:37:01;;;;;;;5.90;5.40;;;21.00;99.90;;;;;;6276461;28;20224;-67
2022/09/01 06:40:09;;;;;;;6.13;5.60;;;21.20;99.90;;;;;;6275651;28;20678;-68
2022/09/01 06:43:14;;;;;;;6.23;5.63;;;21.50;99.90;;;;;;6274793;28;20301;-68
2022/09/01 06:46:18;;;;;;;5.10;4.70;;;22.10;99.90;;;;;;6237982;28;1097662;-67
2022/09/01 06:49:31;;;;;;;5.00;4.60;;;22.80;99.90;;;;;;6277131;28;20683;-68
2022/09/01 06:52:34;;;;;;;5.30;4.80;;;23.20;99.90;;;;;;6276403;28;20305;-68
2022/09/01 06:55:58;;;;;;;5.63;5.10;;;23.60;99.90;;;;;;6272540;28;20223;-68
2022/09/01 06:59:03;;;;;;;5.47;4.97;;;23.90;99.00;;;;;;6273792;28;20234;-68
2022/09/01 07:02:08;;;;;;;5.50;5.00;;;24.00;97.50;;;;;;6276495;28;20234;-68
2022/09/01 07:05:20;;;;;;;5.57;5.07;;;24.00;96.70;;;;;;6236621;28;20360;-67
2022/09/01 07:08:48;;;;;;;5.10;4.60;;;24.20;96.80;;;;;;6241138;28;20676;-67
2022/09/01 07:12:12;;;;;;;5.00;4.53;;;24.40;96.40;;;;;;6275178;28;20227;-67
2022/09/01 07:15:31;;;;;;;5.37;4.17;;;24.80;95.00;;;;;;6277542;28;20228;-67
2022/09/01 07:18:57;;;;;;;3.97;3.67;;;25.00;94.40;;;;;;6266582;28;20695;-67
2022/09/01 07:22:02;;;;;;;4.10;3.80;;;24.70;92.20;;;;;;6268151;28;20895;-67
2022/09/01 07:25:11;;;;;;;4.50;4.10;;;24.40;92.40;;;;;;6277350;28;20243;-67
2022/09/01 07:28:17;;;;;;;4.30;3.83;;;24.60;92.30;;;;;;6277398;28;20776;-67
2022/09/01 07:31:24;;;;;;;3.87;3.47;;;25.00;90.00;;;;;;6276983;28;20249;-67
2022/09/01 07:34:47;;;;;;;3.73;3.23;;;26.50;88.50;;;;;;6276392;28;20553;-67
2022/09/01 07:37:54;;;;;;;3.40;3.10;;;28.60;76.70;;;;;;6277198;28;20235;-67
2022/09/01 07:41:17;;;;;;;3.70;3.40;;;29.20;71.40;;;;;;6276781;28;20551;-67
2022/09/01 07:44:40;;;;;;;3.30;3.00;;;30.20;65.30;;;;;;6253128;28;20239;-67
2022/09/01 07:47:46;;;;;;;3.40;3.10;;;30.30;59.30;;;;;;6259049;28;20223;-67
2022/09/01 07:50:57;;;;;;;3.00;2.80;;;30.60;57.00;;;;;;6270713;28;20360;-67
2022/09/01 07:54:22;;;;;;;3.87;2.63;;;30.30;56.00;;;;;;6257106;28;20238;-68
2022/09/01 07:57:25;;;;;;;3.00;2.80;;;30.90;54.90;;;;;;6238583;28;20234;-67
2022/09/01 08:00:30;;;;;;;3.00;2.80;;;32.70;52.70;;;;;;6249919;28;20227;-67
2022/09/01 08:03:33;;;;;;;2.85;2.65;;;33.10;51.50;;;;;;6276014;28;20223;-68
2022/09/01 08:06:37;;;;;;;2.88;2.67;;;33.10;50.30;;;;;;6275740;28;20227;-67
2022/09/01 08:09:42;;;;;;;2.55;2.35;;;33.60;48.70;;;;;;6274923;28;20298;-67
2022/09/01 08:12:46;;;;;;;2.80;2.60;;;33.40;46.80;;;;;;6275528;28;20329;-68
2022/09/01 08:15:58;;;;;;;2.90;2.70;;;32.50;47.30;;;;;;6273438;28;20322;-69
2022/09/01 08:19:10;;;;;;;3.13;2.58;;;32.30;47.80;;;;;;6274048;28;20234;-70
2022/09/01 08:22:22;;;;;;;2.40;2.20;;;32.90;47.10;;;;;;6260080;28;20239;-70
2022/09/01 08:25:28;;;;;;;2.47;2.22;;;33.50;45.10;;;;;;6242076;28;20708;-71
2022/09/01 08:28:32;;;;;;;3.50;2.65;;;34.20;44.60;;;;;;6251075;28;20550;-70
2022/09/01 08:31:35;;;;;;;2.40;2.20;;;34.50;42.80;;;;;;6250938;28;20663;-70
2022/09/01 08:34:38;;;;;;;5.60;2.40;;;34.70;41.40;;;;;;6249446;28;20361;-70
2022/09/01 08:37:42;;;;;;;2.10;2.00;;;35.30;40.60;;;;;;6248806;28;20695;-69
2022/09/01 08:40:53;;;;;;;2.92;2.63;;;36.10;38.50;;;;;;6248459;28;20228;-70
2022/09/01 08:44:05;;;;;;;3.30;2.42;;;36.30;38.80;;;;;;6249078;28;20311;-70
2022/09/01 08:47:12;;;;;;;2.80;2.53;;;36.40;38.00;;;;;;6248718;28;20386;-70
2022/09/01 08:50:19;;;;;;;3.13;2.67;;;36.80;36.70;;;;;;6248947;28;20236;-71
2022/09/01 08:53:28;;;;;;;2.90;2.42;;;37.50;35.30;;;;;;6249879;28;20242;-70
2022/09/01 08:56:36;;;;;;;2.80;1.98;;;37.40;33.80;;;;;;6251285;28;20226;-72
2022/09/01 08:59:39;;;;;;;2.75;2.50;;;38.00;34.50;;;;;;6251699;28;20498;-70
2022/09/01 09:02:53;;;;;;;3.22;2.50;;;39.60;32.70;;;;;;6252751;28;20215;-70
2022/09/01 09:06:06;;;;;;;3.28;2.10;;;42.10;30.90;;;;;;6275316;28;20238;-70
2022/09/01 09:09:10;;;;;;;2.05;1.88;;;43.70;28.30;;;;;;6273322;28;20234;-70
2022/09/01 09:12:36;;;;;;;2.50;2.30;;;44.80;26.90;;;;;;6273570;28;20675;-70
2022/09/01 09:15:54;;;;;;;2.67;2.22;;;46.20;26.40;;;;;;6274721;28;20239;-70
2022/09/01 09:19:16;;;;;;;2.33;2.17;;;46.80;25.10;;;;;;6274817;28;20231;-71
2022/09/01 09:22:20;;;;;;;2.35;2.15;;;46.70;24.50;;;;;;6274332;28;20227;-71
2022/09/01 09:25:24;;;;;;;2.20;2.10;;;46.70;24.30;;;;;;6273852;28;20247;-71
2022/09/01 09:28:28;;;;;;;3.95;2.10;;;46.30;24.00;;;;;;6269072;28;20226;-71
2022/09/01 09:31:34;;;;;;;2.20;2.00;;;47.10;23.40;;;;;;6273737;28;20226;-72
2022/09/01 09:34:40;;;;;;;2.42;2.22;;;46.90;24.20;;;;;;6273724;28;20278;-71
2022/09/01 09:37:43;;;;;;;2.70;2.50;;;47.50;23.20;;;;;;6273028;28;20579;-68
2022/09/01 09:41:01;;;;;;;2.60;2.25;;;47.40;22.70;;;;;;6274948;28;20284;-71
2022/09/01 09:44:29;;;;;;;2.03;1.90;;;46.70;23.10;;;;;;6272764;28;20223;-70
2022/09/01 09:47:38;;;;;;;2.30;2.10;;;45.80;23.90;;;;;;6272513;28;20224;-71
2022/09/01 09:50:46;;;;;;;2.13;1.92;;;44.00;24.10;;;;;;6272527;28;20691;-70
2022/09/01 09:53:51;;;;;;;2.63;1.92;;;42.00;25.70;;;;;;6273681;28;20227;-71
2022/09/01 09:57:12;;;;;;;2.55;2.10;;;40.10;27.20;;;;;;6275363;28;20241;-69
2022/09/01 10:00:21;;;;;;;2.65;2.00;;;37.90;29.30;;;;;;6274974;28;20229;-70
2022/09/01 10:03:36;;;;;;;2.35;2.25;;;36.00;30.50;;;;;;6274609;28;20268;-70
2022/09/01 10:06:44;;;;;;;2.22;2.13;;;34.20;32.80;;;;;;6274709;28;20250;-69
2022/09/01 10:09:47;;;;;;;3.83;3.10;;;32.60;35.50;;;;;;6274304;28;20694;-69
2022/09/01 10:12:52;;;;;;;3.20;2.95;;;31.40;38.30;;;;;;6274832;28;20242;-69
2022/09/01 10:15:59;;;;;;;3.17;2.97;;;30.40;40.60;;;;;;6272901;28;20231;-69
2022/09/01 10:19:10;;;;;;;3.03;2.83;;;30.00;42.20;;;;;;6271798;28;20227;-70
2022/09/01 10:22:15;;;;;;;2.60;2.40;;;29.70;42.60;;;;;;6272307;28;20237;-69
2022/09/01 10:25:21;;;;;;;3.57;3.27;;;29.50;43.00;;;;;;6272338;28;20223;-69
2022/09/01 10:28:25;;;;;;;2.70;2.50;;;29.50;43.20;;;;;;6272527;28;20231;-69
2022/09/01 10:31:30;;;;;;;3.20;2.90;;;29.60;43.40;;;;;;6269526;28;20231;-70
2022/09/01 10:34:37;;;;;;;2.60;2.40;;;29.70;43.00;;;;;;6276224;28;20859;-69
2022/09/01 10:37:44;;;;;;;3.30;3.00;;;29.50;43.40;;;;;;6276778;28;20235;-68
2022/09/01 10:41:05;;;;;;;3.30;3.00;;;29.20;44.80;;;;;;6258879;28;20235;-68
2022/09/01 10:44:11;;;;;;;2.43;2.23;;;28.80;46.10;;;;;;6253548;28;20231;-68
2022/09/01 10:47:28;;;;;;;3.00;2.80;;;29.00;45.60;;;;;;6252698;28;20244;-68
2022/09/01 10:50:32;;;;;;;3.80;3.40;;;29.20;46.30;;;;;;6253564;28;20212;-68
2022/09/01 10:53:40;;;;;;;4.27;3.07;;;29.10;46.10;;;;;;6253614;28;20226;-68
2022/09/01 10:56:49;;;;;;;4.03;3.23;;;29.10;46.60;;;;;;6268966;28;20335;-69
2022/09/01 10:59:56;;;;;;;4.23;2.90;;;28.40;48.70;;;;;;6276247;28;20220;-68
2022/09/01 11:03:37;;;;;;;3.30;3.10;;;28.00;49.80;;;;;;6275826;28;20227;-68
2022/09/01 11:07:00;;;;;;;4.10;3.80;;;26.40;53.00;;;;;;6258072;28;20317;-68
2022/09/01 11:10:40;;;;;;;5.43;3.57;;;26.10;54.30;;;;;;6277893;28;20227;-67
2022/09/01 11:13:45;;;;;;;5.50;3.73;;;25.60;56.10;;;;;;6277926;28;20242;-67
2022/09/01 11:17:14;;;;;;;4.40;4.10;;;25.60;57.50;;;;;;6277359;28;20718;-68
2022/09/01 11:20:26;;;;;;;4.77;4.13;;;25.30;58.80;;;;;;6277272;28;20228;-68
2022/09/01 11:23:31;;;;;;;4.47;3.87;;;24.20;62.20;;;;;;6276046;28;20253;-68
2022/09/01 11:26:48;;;;;;;4.00;3.60;;;23.30;66.20;;;;;;6275563;28;20588;-68
2022/09/01 11:29:54;;;;;;;4.47;4.17;;;23.30;66.90;;;;;;6277556;28;20299;-68
2022/09/01 11:33:03;;;;;;;5.17;4.67;;;23.50;67.90;;;;;;6273633;28;20313;-68
2022/09/01 11:36:15;;;;;;;4.33;4.03;;;23.50;68.30;;;;;;6277172;28;20231;-68
2022/09/01 11:39:33;;;;;;;4.13;3.83;;;23.50;68.60;;;;;;6277114;28;20228;-68
2022/09/01 11:42:42;;;;;;;4.17;3.87;;;23.50;69.30;;;;;;6276116;28;20228;-68
2022/09/01 11:46:02;;;;;;;4.20;3.70;;;23.50;69.80;;;;;;6274742;28;20554;-67
2022/09/01 11:49:17;;;;;;;3.70;3.43;;;23.50;70.20;;;;;;6276977;28;20556;-69
2022/09/01 11:52:25;;;;;;;3.53;3.23;;;23.50;70.10;;;;;;6276842;28;20228;-69
2022/09/01 11:55:30;;;;;;;3.53;3.23;;;23.50;70.30;;;;;;6276076;28;20239;-69
2022/09/01 11:58:38;;;;;;;3.07;2.87;;;23.60;70.00;;;;;;6276695;28;20234;-69
2022/09/01 12:01:41;;;;;;;3.47;3.17;;;23.80;69.50;;;;;;6276339;28;20242;-69
2022/09/01 12:04:45;;;;;;;4.30;3.90;;;23.80;67.60;;;;;;6276271;28;20564;-68
2022/09/01 12:07:49;;;;;;;4.60;2.87;;;24.00;67.00;;;;;;6276297;28;20240;-69
2022/09/01 12:11:03;;;;;;;3.13;2.80;;;24.60;66.20;;;;;;6276514;28;20566;-69
2022/09/01 12:14:09;;;;;;;3.53;3.23;;;24.80;64.70;;;;;;6276666;28;20231;-68
2022/09/01 12:17:21;;;;;;;3.37;3.03;;;25.10;63.60;;;;;;6276664;28;20262;-67
2022/09/01 12:20:28;;;;;;;2.93;2.63;;;25.20;62.60;;;;;;6276221;28;20228;-69
2022/09/01 12:23:35;;;;;;;3.03;2.70;;;25.10;61.20;;;;;;6276024;28;20212;-69
2022/09/01 12:26:39;;;;;;;3.47;3.17;;;25.20;61.90;;;;;;6275900;28;20239;-67
2022/09/01 12:29:43;;;;;;;3.30;2.83;;;24.90;62.00;;;;;;6277194;28;20215;-67
2022/09/01 12:32:47;;;;;;;3.13;2.63;;;24.60;62.20;;;;;;6275865;28;22469;-68
2022/09/01 12:35:51;;;;;;;3.70;3.20;;;24.10;64.00;;;;;;6271909;28;20228;-68
2022/09/01 12:39:23;;;;;;;3.30;3.00;;;23.80;65.00;;;;;;6276050;28;20227;-67
2022/09/01 12:42:28;;;;;;;2.73;2.53;;;23.70;65.40;;;;;;6275574;28;20220;-67
2022/09/01 12:45:47;;;;;;;3.20;2.80;;;23.60;66.00;;;;;;6252079;28;20248;-67
2022/09/01 12:48:50;;;;;;;2.97;2.50;;;23.50;66.40;;;;;;6251045;28;20325;-68
2022/09/01 12:52:11;;;;;;;3.40;3.10;;;23.40;66.10;;;;;;6251389;28;20350;-68
2022/09/01 12:55:21;;;;;;;3.10;2.90;;;23.30;66.90;;;;;;6250231;28;20312;-68
2022/09/01 12:58:51;;;;;;;2.97;2.50;;;23.20;66.80;;;;;;6257969;28;20560;-68
2022/09/01 13:01:54;;;;;;;3.60;3.03;;;23.20;67.00;;;;;;6250786;28;20243;-68
2022/09/01 13:05:19;;;;;;;5.83;2.67;;;23.20;66.70;;;;;;6250825;28;20232;-67
2022/09/01 13:08:25;;;;;;;3.07;2.50;;;23.20;66.40;;;;;;6250652;28;20315;-68
2022/09/01 13:11:30;;;;;;;4.60;2.80;;;23.30;67.10;;;;;;6249824;28;20260;-69
2022/09/01 13:14:54;;;;;;;4.83;2.57;;;23.40;66.30;;;;;;6250469;28;20238;-68
2022/09/01 13:17:57;;;;;;;11.57;3.17;;;23.50;67.10;;;;;;6254033;28;20234;-68
2022/09/01 13:21:01;;;;;;;7.03;2.60;;;23.60;66.90;;;;;;6275125;28;20233;-69
2022/09/01 13:24:06;;;;;;;3.53;2.90;;;23.60;65.60;;;;;;6275022;28;20224;-68
2022/09/01 13:27:11;;;;;;;2.60;2.40;;;23.60;64.60;;;;;;6274847;28;20224;-69
2022/09/01 13:30:27;;;;;;;6.23;2.87;;;23.60;63.10;;;;;;6274751;28;20562;-69
2022/09/01 13:33:30;;;;;;;2.67;2.33;;;23.60;63.40;;;;;;6274809;28;20230;-70
2022/09/01 13:36:53;;;;;;;1.93;1.83;;;23.60;63.50;;;;;;6274221;28;20232;-68
2022/09/01 13:39:57;;;;;;;2.50;1.97;;;23.60;62.40;;;;;;6269718;28;20246;-68
2022/09/01 13:43:03;;;;;;;3.03;2.07;;;23.70;61.90;;;;;;6274361;28;20227;-68
2022/09/01 13:46:06;;;;;;;2.20;2.00;;;23.70;61.60;;;;;;6274007;28;20231;-69
2022/09/01 13:49:10;;;;;;;2.53;2.30;;;23.60;61.60;;;;;;6274199;28;20302;-68
2022/09/01 13:52:34;;;;;;;2.87;2.30;;;23.60;62.70;;;;;;6273148;28;20226;-68
2022/09/01 13:55:40;;;;;;;2.40;2.20;;;23.60;62.60;;;;;;6249246;28;20279;-68
2022/09/01 13:58:44;;;;;;;2.50;2.30;;;23.60;63.00;;;;;;6249705;28;20232;-68
2022/09/01 14:01:50;;;;;;;2.53;2.33;;;23.50;63.40;;;;;;6249257;28;20236;-68
2022/09/01 14:04:53;;;;;;;2.23;2.03;;;23.50;63.00;;;;;;6248919;28;20232;-68
2022/09/01 14:07:57;;;;;;;3.17;1.80;;;23.60;62.30;;;;;;6254104;28;20311;-69
2022/09/01 14:11:01;;;;;;;2.33;2.00;;;23.60;62.10;;;;;;6253998;28;20726;-68
2022/09/01 14:14:06;;;;;;;2.93;2.73;;;23.60;62.20;;;;;;6254744;28;20232;-68
2022/09/01 14:17:09;;;;;;;2.73;2.53;;;23.60;62.70;;;;;;6253750;28;20236;-68
2022/09/01 14:20:15;;;;;;;3.53;2.47;;;23.60;63.30;;;;;;6276059;28;20537;-68
2022/09/01 14:23:19;;;;;;;2.90;2.27;;;23.60;63.30;;;;;;6278933;28;20228;-68
2022/09/01 14:26:22;;;;;;;2.90;2.57;;;23.60;63.70;;;;;;6279077;28;20223;-68
2022/09/01 14:29:31;;;;;;;2.77;2.47;;;23.60;65.20;;;;;;6279493;28;20296;-68
2022/09/01 14:32:35;;;;;;;4.53;2.43;;;23.60;64.00;;;;;;6279147;28;20723;-68
2022/09/01 14:35:40;;;;;;;2.57;2.37;;;23.60;65.00;;;;;;6279145;28;20220;-68
2022/09/01 14:38:43;;;;;;;3.23;2.40;;;23.50;65.30;;;;;;6279274;28;20200;-68
2022/09/01 14:41:46;;;;;;;2.47;2.30;;;23.50;64.20;;;;;;6278407;28;20207;-68
2022/09/01 14:44:51;;;;;;;3.33;2.70;;;23.40;64.30;;;;;;6278481;28;20236;-67
2022/09/01 14:47:59;;;;;;;2.83;2.63;;;23.40;65.30;;;;;;6277965;28;20247;-68
2022/09/01 14:51:03;;;;;;;4.30;2.63;;;23.30;65.60;;;;;;6278407;28;20321;-68
2022/09/01 14:54:06;;;;;;;3.17;2.20;;;23.30;66.20;;;;;;6278281;28;20243;-71
2022/09/01 14:57:09;;;;;;;2.53;2.33;;;23.30;65.50;;;;;;6277170;28;20242;-70
2022/09/01 15:00:35;;;;;;;3.00;2.70;;;23.30;65.00;;;;;;6277754;28;20672;-68
2022/09/01 15:03:38;;;;;;;3.37;2.70;;;23.40;66.60;;;;;;6277883;28;20228;-70
2022/09/01 15:06:42;;;;;;;2.30;2.10;;;23.30;66.30;;;;;;6277969;28;20242;-69
2022/09/01 15:09:45;;;;;;;1.70;1.60;;;23.40;62.20;;;;;;6277638;28;20702;-70
2022/09/01 15:12:48;;;;;;;3.57;1.57;;;23.30;59.50;;;;;;6278009;28;20234;-70
2022/09/01 15:15:53;;;;;;;3.40;1.50;;;23.30;59.30;;;;;;6277556;28;20247;-69
2022/09/01 15:18:56;;;;;;;2.33;1.70;;;23.20;59.50;;;;;;6276936;28;20238;-69
2022/09/01 15:21:59;;;;;;;3.43;1.60;;;23.20;59.40;;;;;;6277336;28;20235;-68
2022/09/01 15:25:02;;;;;;;2.00;1.50;;;23.20;58.90;;;;;;6277114;28;20223;-69
2022/09/01 15:28:06;;;;;;;2.53;1.77;;;23.10;58.30;;;;;;6277578;28;20223;-70
2022/09/01 15:31:11;;;;;;;3.20;2.00;;;23.10;58.80;;;;;;6277325;28;20231;-70
2022/09/01 15:34:17;;;;;;;3.00;2.03;;;23.10;59.30;;;;;;6278228;28;20312;-70
2022/09/01 15:37:20;;;;;;;1.53;1.43;;;23.10;59.40;;;;;;6277546;28;20223;-68
2022/09/01 15:40:25;;;;;;;1.97;1.53;;;23.10;59.30;;;;;;6276957;28;20231;-68
2022/09/01 15:43:29;;;;;;;2.23;1.70;;;23.10;59.40;;;;;;6277062;28;20573;-66
2022/09/01 15:46:34;;;;;;;1.73;1.63;;;23.10;58.90;;;;;;6276550;28;20559;-67
2022/09/01 15:49:38;;;;;;;2.20;2.03;;;23.10;59.10;;;;;;6266847;28;20315;-67
2022/09/01 15:52:49;;;;;;;2.30;1.83;;;23.10;58.70;;;;;;6275095;28;20228;-67
2022/09/01 15:55:52;;;;;;;4.00;1.70;;;23.10;59.30;;;;;;6274848;28;20240;-67
2022/09/01 15:58:57;;;;;;;3.43;1.70;;;23.10;59.80;;;;;;6274894;28;20236;-67
2022/09/01 16:02:05;;;;;;;3.37;1.83;;;23.10;59.40;;;;;;6274971;28;20224;-67
2022/09/01 16:05:09;;;;;;;2.33;1.60;;;23.00;59.60;;;;;;6275480;28;20227;-67
2022/09/01 16:08:12;;;;;;;1.60;1.50;;;22.90;59.30;;;;;;6276302;28;20230;-67
2022/09/01 16:11:16;;;;;;;3.40;1.47;;;22.80;59.10;;;;;;6276002;28;20227;-67
2022/09/01 16:14:21;;;;;;;1.67;1.40;;;22.80;59.10;;;;;;6276077;28;20224;-67
2022/09/01 16:17:40;;;;;;;2.27;1.93;;;22.70;59.60;;;;;;6275872;28;20224;-67
2022/09/01 16:20:53;;;;;;;2.60;2.17;;;22.70;60.20;;;;;;6251056;28;20212;-67